Time;durP1;ratioP1;P1;durP2;ratioP2;P2;SDS_P1;SDS_P2;PMS_P1;PMS_P2;Temp;Humidity;BMP_temperature;BMP_pressure;BME280_temperature;BME280_humidity;BME280_pressure;Samples;Min_cycle;Max_cycle;Signal;HPM_P1;HPM_P2
2021/09/24 00:00:27;;;;;;;11.93;6.37;;;;;;;14.59;93.26;101577.78;2090507;28;20028;-65
2021/09/24 00:01:27;;;;;;;11.30;6.07;;;;;;;14.60;93.40;101578.63;2089829;28;20493;-65
2021/09/24 00:02:27;;;;;;;11.37;6.57;;;;;;;14.60;93.56;101574.22;2089859;28;20210;-65
2021/09/24 00:03:28;;;;;;;9.57;5.70;;;;;;;14.61;93.09;101581.16;2090350;28;20136;-65
2021/09/24 00:04:30;;;;;;;13.00;6.83;;;;;;;14.60;92.99;101579.47;2090517;28;20067;-64
2021/09/24 00:05:30;;;;;;;9.75;5.55;;;;;;;14.59;92.54;101574.28;2090357;28;20099;-64
2021/09/24 00:06:30;;;;;;;8.63;5.47;;;;;;;14.58;92.34;101570.84;2090470;28;20028;-64
2021/09/24 00:07:31;;;;;;;9.63;5.57;;;;;;;14.58;92.40;101569.97;2089699;28;20106;-64
2021/09/24 00:08:32;;;;;;;7.47;5.87;;;;;;;14.57;92.21;101573.53;2089940;28;20057;-65
2021/09/24 00:09:32;;;;;;;;;;;;;;;14.57;92.15;101579.63;2090856;28;20017;-65
2021/09/24 00:10:33;;;;;;;13.20;5.72;;;;;;;14.55;92.23;101576.22;2089737;28;19909;-64
2021/09/24 00:11:34;;;;;;;12.00;5.37;;;;;;;14.55;92.69;101571.81;2089768;28;20516;-65
2021/09/24 00:12:35;;;;;;;8.43;4.95;;;;;;;14.55;92.70;101570.97;2090423;28;20078;-64
2021/09/24 00:13:35;;;;;;;9.48;5.32;;;;;;;14.55;93.00;101570.97;2089679;28;20437;-64
2021/09/24 00:14:35;;;;;;;9.80;5.33;;;;;;;14.54;93.00;101570.13;2089746;28;20050;-64
2021/09/24 00:15:36;;;;;;;10.47;6.17;;;;;;;14.52;92.91;101571.97;2089787;28;20021;-65
2021/09/24 00:16:37;;;;;;;11.48;4.93;;;;;;;14.52;92.90;101571.13;2089701;28;20035;-64
2021/09/24 00:17:37;;;;;;;7.93;5.32;;;;;;;14.51;93.05;101569.44;2090295;28;20048;-64
2021/09/24 00:18:37;;;;;;;11.60;5.67;;;;;;;14.50;93.42;101567.69;2089622;28;20029;-64
2021/09/24 00:19:38;;;;;;;8.77;5.93;;;;;;;14.51;93.17;101566.81;2089617;28;20096;-64
2021/09/24 00:20:38;;;;;;;15.17;5.90;;;;;;;14.51;93.46;101569.44;2089762;28;20525;-65
2021/09/24 00:21:38;;;;;;;11.67;6.87;;;;;;;14.51;93.38;101570.25;2089666;28;20435;-64
2021/09/24 00:22:39;;;;;;;10.43;5.43;;;;;;;14.52;93.58;101571.13;2089744;28;20315;-64
2021/09/24 00:23:39;;;;;;;11.95;5.32;;;;;;;14.52;93.41;101571.97;2090263;28;20076;-64
2021/09/24 00:24:40;;;;;;;11.57;6.40;;;;;;;14.52;93.50;101571.13;2090325;28;20016;-64
2021/09/24 00:26:26;;;;;;;9.57;5.93;;;;;;;14.54;93.30;101564.00;2089497;28;20057;-66
2021/09/24 00:27:27;;;;;;;8.75;6.20;;;;;;;14.53;93.47;101572.81;2087481;28;20040;-65
2021/09/24 00:28:36;;;;;;;8.37;5.97;;;;;;;14.52;93.49;101565.88;2089672;28;20016;-64
2021/09/24 00:29:36;;;;;;;9.95;5.85;;;;;;;14.52;93.74;101571.13;2090274;28;20036;-63
2021/09/24 00:30:37;;;;;;;10.37;5.40;;;;;;;14.51;93.89;101569.44;2090332;28;20478;-64
2021/09/24 00:31:37;;;;;;;8.82;6.13;;;;;;;14.51;93.13;101572.88;2090210;28;20024;-64
2021/09/24 00:32:38;;;;;;;9.07;6.07;;;;;;;14.51;93.40;101564.16;2090134;28;20025;-65
2021/09/24 00:33:38;;;;;;;9.57;5.32;;;;;;;14.50;93.09;101567.69;2090236;28;20021;-65
2021/09/24 00:35:15;;;;;;;12.38;6.32;;;;;;;14.51;93.78;101564.16;2090194;28;20032;-65
2021/09/24 00:36:16;;;;;;;10.77;5.13;;;;;;;14.50;93.15;101557.19;2090208;28;20471;-64
2021/09/24 00:37:16;;;;;;;6.83;5.00;;;;;;;14.50;93.46;101562.44;2090226;28;20020;-65
2021/09/24 00:38:16;;;;;;;9.30;4.97;;;;;;;14.50;93.47;101562.44;2090195;28;20065;-65
2021/09/24 00:39:17;;;;;;;15.23;5.77;;;;;;;14.50;93.67;101551.94;2090198;28;20051;-64
2021/09/24 00:40:17;;;;;;;12.47;6.10;;;;;;;14.49;93.52;101560.75;2090176;28;20077;-64
2021/09/24 00:41:17;;;;;;;11.60;5.30;;;;;;;14.50;93.67;101558.06;2090212;28;20025;-65
2021/09/24 00:42:18;;;;;;;17.77;6.10;;;;;;;14.50;93.61;101551.94;2090213;28;20040;-64
2021/09/24 00:43:18;;;;;;;8.43;6.23;;;;;;;14.50;93.99;101552.81;2089464;28;20119;-64
2021/09/24 00:44:18;;;;;;;11.18;5.10;;;;;;;14.49;93.65;101552.88;2089517;28;20029;-64
2021/09/24 00:45:19;;;;;;;9.07;5.23;;;;;;;14.49;93.95;101551.13;2089479;28;20040;-65
2021/09/24 00:46:19;;;;;;;10.13;6.10;;;;;;;14.49;93.90;101545.00;2089571;28;20099;-66
2021/09/24 00:47:21;;;;;;;10.50;5.73;;;;;;;14.48;94.26;101545.94;2090096;28;20056;-65
2021/09/24 00:48:22;;;;;;;12.27;5.75;;;;;;;14.46;94.18;101545.13;2088964;28;20033;-65
2021/09/24 00:49:23;;;;;;;8.27;6.30;;;;;;;14.45;94.40;101543.44;2089646;28;20041;-65
2021/09/24 00:50:23;;;;;;;13.30;5.63;;;;;;;14.44;94.20;101539.13;2090162;28;20021;-65
2021/09/24 00:51:24;;;;;;;11.33;5.87;;;;;;;14.45;94.35;101535.56;2090112;28;20012;-65
2021/09/24 00:52:25;;;;;;;9.87;6.00;;;;;;;14.46;93.98;101540.75;2090113;28;20068;-65
2021/09/24 00:53:25;;;;;;;9.70;6.55;;;;;;;14.49;94.34;101539.75;2090063;28;20520;-66
2021/09/24 00:54:27;;;;;;;13.38;6.90;;;;;;;14.50;94.77;101541.44;2090164;28;20099;-66
2021/09/24 00:55:27;;;;;;;13.73;7.10;;;;;;;14.50;94.57;101541.44;2090025;28;20024;-65
2021/09/24 00:56:28;;;;;;;8.38;6.03;;;;;;;14.52;94.67;101544.84;2090026;28;20021;-65
2021/09/24 00:57:29;;;;;;;12.52;7.78;;;;;;;14.52;94.79;101537.84;2090112;28;20029;-65
2021/09/24 00:58:29;;;;;;;11.27;7.80;;;;;;;14.53;94.74;101541.28;2090139;28;20056;-65
2021/09/24 00:59:29;;;;;;;17.30;7.43;;;;;;;14.52;94.63;101536.97;2090077;28;20021;-64
2021/09/24 01:00:30;;;;;;;14.20;8.00;;;;;;;14.54;94.80;101543.00;2090050;28;20061;-65
2021/09/24 01:01:30;;;;;;;15.37;8.17;;;;;;;14.53;94.98;101531.66;2090092;28;20029;-65
2021/09/24 01:02:30;;;;;;;13.37;7.30;;;;;;;14.53;94.87;101536.03;2090009;28;20070;-66
2021/09/24 01:03:31;;;;;;;11.43;7.13;;;;;;;14.53;95.16;101530.78;2090082;28;20023;-63
2021/09/24 01:04:31;;;;;;;12.63;7.70;;;;;;;14.54;95.20;101532.47;2090135;28;20016;-66
2021/09/24 01:05:32;;;;;;;19.13;9.30;;;;;;;14.55;95.14;101534.22;2089991;28;20032;-65
2021/09/24 01:06:33;;;;;;;15.70;7.87;;;;;;;14.55;95.16;101527.16;2090123;28;20382;-65
2021/09/24 01:07:38;;;;;;;13.18;8.77;;;;;;;14.56;95.32;101535.91;2089952;28;20036;-64
2021/09/24 01:08:38;;;;;;;17.42;8.68;;;;;;;14.57;95.25;101527.09;2089997;28;20475;-65
2021/09/24 01:09:39;;;;;;;14.63;9.13;;;;;;;14.57;95.27;101532.34;2089400;28;20031;-65
2021/09/24 01:10:40;;;;;;;;;;;;;;;14.60;95.03;101526.94;2081666;28;20025;-64
2021/09/24 01:11:40;;;;;;;19.98;12.05;;;;;;;14.60;95.29;101532.19;2089453;28;19916;-64
2021/09/24 01:12:41;;;;;;;21.10;10.23;;;;;;;14.62;95.52;101532.13;2090240;28;20028;-64
2021/09/24 01:13:42;;;;;;;23.70;12.65;;;;;;;14.64;95.28;101531.13;2089429;28;20153;-64
2021/09/24 01:14:42;;;;;;;17.47;12.70;;;;;;;14.65;95.54;101529.34;2081171;28;20033;-64
2021/09/24 01:15:42;;;;;;;23.20;13.80;;;;;;;14.67;95.43;101528.34;2089353;28;20028;-65
2021/09/24 01:16:43;;;;;;;23.20;13.77;;;;;;;14.68;95.28;101524.78;2090056;28;20029;-65
2021/09/24 01:17:45;;;;;;;26.05;16.05;;;;;;;14.71;95.35;101522.97;2089417;28;20064;-64
2021/09/24 01:18:45;;;;;;;28.48;17.02;;;;;;;14.72;95.23;101524.66;2089423;28;20028;-64
2021/09/24 01:19:45;;;;;;;26.20;17.90;;;;;;;14.72;95.20;101524.66;2090002;28;20060;-65
2021/09/24 01:20:48;;;;;;;25.23;17.67;;;;;;;14.71;95.19;101528.22;2089269;28;20063;-64
2021/09/24 01:21:49;;;;;;;27.10;17.27;;;;;;;14.72;95.04;101519.41;2081291;28;20067;-65
2021/09/24 01:22:51;;;;;;;29.48;17.33;;;;;;;14.73;94.83;101526.34;2081173;28;20052;-65
2021/09/24 01:23:51;;;;;;;25.45;16.77;;;;;;;14.74;94.84;101522.78;2089235;28;20072;-65
2021/09/24 01:24:51;;;;;;;25.20;17.00;;;;;;;14.73;94.86;101516.69;2090016;28;20052;-65
2021/09/24 01:25:52;;;;;;;23.97;17.30;;;;;;;14.75;94.80;101520.09;2089935;28;20025;-65
2021/09/24 01:26:55;;;;;;;26.77;18.23;;;;;;;14.73;94.65;101521.94;2089969;28;20108;-65
2021/09/24 01:27:56;;;;;;;25.63;17.45;;;;;;;14.72;94.72;101514.13;2089954;28;20032;-64
2021/09/24 01:28:58;;;;;;;24.75;18.50;;;;;;;14.71;94.99;101513.28;2090065;28;20025;-64
2021/09/24 01:29:58;;;;;;;24.75;17.73;;;;;;;14.72;94.61;101514.13;2089974;28;20021;-65
2021/09/24 01:30:58;;;;;;;22.73;16.25;;;;;;;14.71;94.42;101515.91;2090048;28;20094;-65
2021/09/24 01:31:59;;;;;;;32.07;18.67;;;;;;;14.72;94.77;101508.88;2089954;28;20020;-65
2021/09/24 01:32:59;;;;;;;28.47;17.47;;;;;;;14.73;94.63;101518.47;2089877;28;20061;-64
2021/09/24 01:33:59;;;;;;;23.07;16.87;;;;;;;14.73;94.39;101515.84;2089306;28;20048;-65
2021/09/24 01:35:01;;;;;;;26.27;16.53;;;;;;;14.74;94.57;101517.53;2089414;28;20451;-64
2021/09/24 01:36:01;;;;;;;;;;;;;;;14.74;94.29;101517.53;2090378;28;20027;-64
2021/09/24 01:37:01;;;;;;;28.53;16.70;;;;;;;14.75;94.26;101519.25;2089308;28;19917;-66
2021/09/24 01:38:01;;;;;;;25.57;16.90;;;;;;;14.74;94.53;101514.91;2089328;28;20108;-66
2021/09/24 01:39:05;;;;;;;27.50;17.57;;;;;;;14.72;94.47;101514.13;2089930;28;20126;-64
2021/09/24 01:40:19;;;;;;;27.70;16.65;;;;;;;14.73;94.34;101510.59;2089909;28;20039;-64
2021/09/24 01:41:19;;;;;;;24.58;17.45;;;;;;;14.73;94.74;101515.84;2089961;28;20048;-65
2021/09/24 01:42:21;;;;;;;26.80;17.33;;;;;;;14.72;94.56;101514.13;2090023;28;20052;-64
2021/09/24 01:43:21;;;;;;;26.50;16.85;;;;;;;14.71;94.53;101512.44;2089971;28;20024;-64
2021/09/24 01:44:21;;;;;;;26.40;16.43;;;;;;;14.70;94.37;101510.72;2089887;28;20059;-64
2021/09/24 01:45:22;;;;;;;28.40;17.03;;;;;;;14.67;94.57;101509.97;2089729;28;20029;-64
2021/09/24 01:46:22;;;;;;;36.92;19.75;;;;;;;14.68;94.22;101506.41;2089947;28;20123;-63
2021/09/24 01:47:23;;;;;;;28.47;18.77;;;;;;;14.69;94.32;101509.91;2089241;28;20063;-64
2021/09/24 01:48:23;;;;;;;28.53;18.43;;;;;;;14.69;94.64;101504.66;2089420;28;20044;-64
2021/09/24 01:49:23;;;;;;;27.30;17.40;;;;;;;14.70;94.36;101505.47;2089812;28;20021;-64
2021/09/24 01:50:23;;;;;;;32.67;18.23;;;;;;;14.68;94.25;101500.31;2089889;28;20040;-64
2021/09/24 01:51:24;;;;;;;26.73;16.87;;;;;;;14.68;94.13;101503.78;2089869;28;20059;-64
2021/09/24 01:52:24;;;;;;;31.33;17.27;;;;;;;14.70;94.29;101505.47;2089250;28;20025;-65
2021/09/24 01:53:24;;;;;;;32.90;18.77;;;;;;;14.70;94.32;101502.84;2089383;28;20025;-64
2021/09/24 01:54:24;;;;;;;32.07;17.80;;;;;;;14.69;93.93;101502.00;2089900;28;20025;-65
2021/09/24 01:55:25;;;;;;;28.20;19.17;;;;;;;14.68;94.29;101503.78;2089885;28;20063;-64
2021/09/24 01:56:25;;;;;;;29.73;18.60;;;;;;;14.67;94.18;101502.09;2089302;28;20037;-65
2021/09/24 01:57:25;;;;;;;35.47;20.57;;;;;;;14.66;94.18;101500.41;2089208;28;20032;-65
2021/09/24 01:58:26;;;;;;;35.00;21.03;;;;;;;14.65;94.31;101501.28;2089842;28;20421;-65
2021/09/24 01:59:26;;;;;;;30.30;18.80;;;;;;;14.65;94.25;101503.94;2089929;28;20031;-64
2021/09/24 02:00:26;;;;;;;31.03;20.03;;;;;;;14.63;93.90;101505.78;2090025;28;20048;-65
2021/09/24 02:01:27;;;;;;;32.80;19.97;;;;;;;14.64;94.32;101502.22;2091428;28;20465;-65
2021/09/24 02:02:27;;;;;;;34.07;20.00;;;;;;;14.64;94.52;101502.22;2091371;28;20108;-65
2021/09/24 02:03:27;;;;;;;37.63;21.93;;;;;;;14.63;94.40;101500.53;2091487;28;20155;-65
2021/09/24 02:04:28;;;;;;;44.83;21.70;;;;;;;14.63;94.57;101505.78;2091308;28;20048;-65
2021/09/24 02:05:28;;;;;;;34.27;21.73;;;;;;;14.62;94.63;101498.84;2091254;28;20461;-65
2021/09/24 02:06:29;;;;;;;37.60;21.43;;;;;;;14.63;94.43;101500.53;2091425;28;20036;-65
2021/09/24 02:07:29;;;;;;;39.78;21.38;;;;;;;14.62;94.54;101504.09;2091481;28;20031;-65
2021/09/24 02:08:29;;;;;;;34.93;21.20;;;;;;;14.63;94.30;101497.06;2091358;28;20020;-68
2021/09/24 02:09:30;;;;;;;41.37;21.07;;;;;;;14.64;94.35;101501.38;2091199;28;20033;-65
2021/09/24 02:10:30;;;;;;;38.37;20.77;;;;;;;14.64;94.26;101501.38;2090646;28;20044;-65
2021/09/24 02:11:30;;;;;;;39.00;22.27;;;;;;;14.65;94.52;101503.94;2090650;28;20031;-65
2021/09/24 02:12:31;;;;;;;41.70;22.57;;;;;;;14.64;94.40;101504.84;2091311;28;20024;-64
2021/09/24 02:13:31;;;;;;;42.00;21.73;;;;;;;14.64;94.44;101501.38;2090580;28;20428;-64
2021/09/24 02:14:33;;;;;;;36.58;23.30;;;;;;;14.63;94.63;101502.31;2090663;28;20025;-64
2021/09/24 02:15:33;;;;;;;38.75;22.77;;;;;;;14.63;94.68;101505.78;2091267;28;20009;-64
2021/09/24 02:16:33;;;;;;;39.43;24.00;;;;;;;14.65;94.77;101498.66;2091270;28;20029;-64
2021/09/24 02:17:34;;;;;;;42.80;23.23;;;;;;;14.63;94.58;101500.53;2091458;28;20024;-65
2021/09/24 02:18:34;;;;;;;42.43;24.17;;;;;;;14.64;94.41;101499.59;2091261;28;20047;-66
2021/09/24 02:19:35;;;;;;;46.50;24.95;;;;;;;14.65;94.59;101495.22;2091263;28;20075;-65
2021/09/24 02:20:35;;;;;;;54.03;25.23;;;;;;;14.67;94.48;101495.97;2091250;28;20114;-64
2021/09/24 02:21:36;;;;;;;51.87;25.47;;;;;;;14.67;94.62;101491.59;2090431;28;20537;-65
2021/09/24 02:22:37;;;;;;;46.37;25.97;;;;;;;14.67;94.77;101495.97;2082330;28;20083;-65
2021/09/24 02:23:38;;;;;;;45.88;25.85;;;;;;;14.67;94.60;101502.09;2090401;28;20518;-65
2021/09/24 02:24:38;;;;;;;48.10;25.15;;;;;;;14.67;94.73;101496.84;2091245;28;20070;-65
2021/09/24 02:25:38;;;;;;;47.80;25.50;;;;;;;14.68;94.64;101497.69;2091084;28;20086;-64
2021/09/24 02:26:39;;;;;;;46.73;24.67;;;;;;;14.68;94.44;101503.78;2091189;28;20069;-65
2021/09/24 02:27:40;;;;;;;43.75;26.67;;;;;;;14.68;94.53;101495.91;2091096;28;20123;-64
2021/09/24 02:28:42;;;;;;;55.43;28.30;;;;;;;14.68;94.45;101497.69;2091168;28;20490;-65
2021/09/24 02:29:43;;;;;;;52.97;27.60;;;;;;;14.68;94.60;101495.91;2091129;28;20021;-64
2021/09/24 02:30:44;;;;;;;52.77;25.50;;;;;;;14.69;94.73;101488.88;2091166;28;20028;-64
2021/09/24 02:31:44;;;;;;;57.78;27.88;;;;;;;14.70;94.88;101494.97;2090914;28;20483;-63
2021/09/24 02:32:44;;;;;;;59.33;29.47;;;;;;;14.67;94.85;101491.59;2091190;28;20028;-65
2021/09/24 02:33:45;;;;;;;59.83;29.67;;;;;;;14.67;94.89;101483.69;2090983;28;20021;-65
2021/09/24 02:34:45;;;;;;;55.97;28.30;;;;;;;14.66;94.98;101489.88;2090465;28;20530;-64
2021/09/24 02:35:45;;;;;;;56.90;31.07;;;;;;;14.66;94.86;101484.63;2090481;28;20021;-65
2021/09/24 02:36:46;;;;;;;64.45;31.85;;;;;;;14.65;94.79;101484.72;2091107;28;20068;-65
2021/09/24 02:37:46;;;;;;;53.47;27.87;;;;;;;14.63;94.97;101482.16;2091141;28;20108;-64
2021/09/24 02:38:46;;;;;;;58.10;30.53;;;;;;;14.64;95.21;101481.22;2091136;28;20070;-65
2021/09/24 02:39:47;;;;;;;59.13;29.70;;;;;;;14.65;94.69;101487.34;2091025;28;20059;-65
2021/09/24 02:40:47;;;;;;;64.00;31.67;;;;;;;14.64;94.82;101486.47;2091091;28;20070;-65
2021/09/24 02:41:47;;;;;;;57.10;29.70;;;;;;;14.64;95.12;101491.72;2090378;28;20525;-64
2021/09/24 02:42:47;;;;;;;68.40;31.23;;;;;;;14.65;94.91;101482.91;2090459;28;20029;-65
2021/09/24 02:43:47;;;;;;;57.33;30.93;;;;;;;14.65;94.89;101482.91;2091053;28;20028;-65
2021/09/24 02:44:48;;;;;;;63.90;30.07;;;;;;;14.65;95.00;101482.91;2091019;28;20560;-64
2021/09/24 02:45:48;;;;;;;59.97;31.50;;;;;;;14.64;94.97;101489.09;2090862;28;20280;-63
2021/09/24 02:46:48;;;;;;;54.70;28.60;;;;;;;14.64;95.24;101480.34;2091003;28;20478;-64
2021/09/24 02:47:49;;;;;;;64.27;31.40;;;;;;;14.63;95.20;101483.91;2091046;28;20112;-65
2021/09/24 02:48:49;;;;;;;58.80;30.10;;;;;;;14.63;95.17;101489.16;2090975;28;20394;-64
2021/09/24 02:49:49;;;;;;;53.80;29.53;;;;;;;14.61;94.93;101488.41;2090978;28;20029;-64
2021/09/24 02:50:49;;;;;;;65.23;34.23;;;;;;;14.61;95.34;101484.00;2090962;28;20032;-64
2021/09/24 02:51:50;;;;;;;65.43;31.00;;;;;;;14.60;95.16;101487.56;2090971;28;20024;-65
2021/09/24 02:52:50;;;;;;;69.50;30.83;;;;;;;14.60;95.42;101482.28;2090329;28;20061;-63
2021/09/24 02:53:50;;;;;;;68.30;35.90;;;;;;;14.59;95.39;101475.34;2090451;28;20048;-64
2021/09/24 02:54:50;;;;;;;70.73;32.43;;;;;;;14.59;95.55;101480.59;2090912;28;20071;-64
2021/09/24 02:55:51;;;;;;;68.03;35.03;;;;;;;14.59;95.33;101475.34;2090921;28;20017;-63
2021/09/24 02:56:51;;;;;;;61.17;32.37;;;;;;;14.60;95.46;101479.66;2090328;28;20024;-64
2021/09/24 02:57:51;;;;;;;66.43;35.23;;;;;;;14.59;95.38;101483.22;2081942;28;20119;-64
2021/09/24 02:58:51;;;;;;;68.63;34.87;;;;;;;14.59;95.49;101477.97;2090239;28;20029;-64
2021/09/24 02:59:52;;;;;;;62.37;32.03;;;;;;;14.58;95.59;101478.06;2090900;28;20053;-64
2021/09/24 03:00:52;;;;;;;71.45;34.45;;;;;;;14.58;95.99;101478.06;2090915;28;20103;-64
2021/09/24 03:01:55;;;;;;;74.00;34.93;;;;;;;14.57;95.79;101477.19;2090868;28;20079;-65
2021/09/24 03:02:55;;;;;;;74.30;35.28;;;;;;;14.58;95.75;101481.53;2090852;28;20163;-64
2021/09/24 03:03:56;;;;;;;70.33;35.20;;;;;;;14.57;96.01;101479.81;2090897;28;20536;-64
2021/09/24 03:04:56;;;;;;;65.07;32.33;;;;;;;14.58;95.98;101470.16;2090905;28;20501;-65
2021/09/24 03:05:57;;;;;;;65.90;34.20;;;;;;;14.57;95.66;101476.34;2090148;28;20473;-64
2021/09/24 03:06:57;;;;;;;71.60;35.10;;;;;;;14.58;95.96;101476.28;2090239;28;20056;-64
2021/09/24 03:07:57;;;;;;;65.97;33.87;;;;;;;14.58;95.99;101475.44;2090826;28;20115;-65
2021/09/24 03:08:57;;;;;;;64.80;32.77;;;;;;;14.58;96.07;101476.28;2090843;28;20118;-64
2021/09/24 03:09:58;;;;;;;77.87;36.13;;;;;;;14.59;96.11;101477.13;2090830;28;20032;-65
2021/09/24 03:10:58;;;;;;;73.80;35.33;;;;;;;14.59;96.12;101477.97;2090733;28;20052;-65
2021/09/24 03:11:58;;;;;;;62.97;31.73;;;;;;;14.58;96.35;101476.28;2090319;28;20471;-65
2021/09/24 03:12:59;;;;;;;72.83;34.60;;;;;;;14.58;96.31;101481.53;2090132;28;20035;-65
2021/09/24 03:13:59;;;;;;;60.97;34.23;;;;;;;14.59;96.38;101477.97;2090199;28;20029;-63
2021/09/24 03:14:59;;;;;;;81.40;38.03;;;;;;;14.58;96.35;101476.28;2090125;28;20418;-65
2021/09/24 03:16:01;;;;;;;77.97;38.58;;;;;;;14.59;96.32;101480.59;2090219;28;20040;-65
2021/09/24 03:17:01;;;;;;;;;;;;;;;14.59;96.25;101475.34;2091214;28;20021;-65
2021/09/24 03:18:02;;;;;;;69.20;33.25;;;;;;;14.58;96.34;101476.28;2090755;28;20326;-65
2021/09/24 03:19:03;;;;;;;73.30;35.08;;;;;;;14.57;96.29;101479.81;2090796;28;20032;-65
2021/09/24 03:20:05;;;;;;;;;;;;;;;14.58;95.76;101481.53;2090515;28;20029;-65
2021/09/24 03:21:05;;;;;;;80.88;36.50;;;;;;;14.57;96.09;101477.19;2090154;28;20359;-64
2021/09/24 03:22:05;;;;;;;74.63;34.60;;;;;;;14.58;96.16;101481.53;2090726;28;20021;-63
2021/09/24 03:23:05;;;;;;;85.63;38.87;;;;;;;14.59;96.33;101487.63;2090489;28;20486;-64
2021/09/24 03:24:06;;;;;;;82.03;38.77;;;;;;;14.58;96.66;101471.03;2090687;28;20450;-63
2021/09/24 03:25:07;;;;;;;79.53;36.80;;;;;;;14.58;96.36;101480.69;2090718;28;20025;-63
2021/09/24 03:26:07;;;;;;;83.53;40.35;;;;;;;14.56;96.72;101475.50;2090714;28;20035;-64
2021/09/24 03:27:08;;;;;;;87.43;41.17;;;;;;;14.56;96.57;101478.13;2090719;28;20029;-64
2021/09/24 03:28:10;;;;;;;76.97;37.65;;;;;;;14.57;96.50;101476.34;2090709;28;20025;-64
2021/09/24 03:29:11;;;;;;;81.47;38.70;;;;;;;14.54;96.72;101475.56;2090701;28;20036;-64
2021/09/24 03:30:12;;;;;;;79.72;42.28;;;;;;;14.55;96.75;101471.19;2090640;28;20374;-64
2021/09/24 03:31:14;;;;;;;81.88;39.03;;;;;;;14.53;96.79;101473.88;2090022;28;20027;-65
2021/09/24 03:32:18;;;;;;;88.10;39.67;;;;;;;14.53;96.85;101470.38;2090038;28;20557;-64
2021/09/24 03:33:19;;;;;;;85.68;41.97;;;;;;;14.54;96.91;101474.72;2090646;28;20478;-64
2021/09/24 03:34:19;;;;;;;87.10;38.70;;;;;;;14.53;96.92;101466.00;2090561;28;20025;-65
2021/09/24 03:35:19;;;;;;;92.43;43.43;;;;;;;14.53;97.04;101473.00;2090641;28;20029;-64
2021/09/24 03:36:20;;;;;;;76.10;37.87;;;;;;;14.53;96.99;101475.63;2090601;28;20112;-65
2021/09/24 03:37:20;;;;;;;84.23;41.93;;;;;;;14.51;96.71;101475.72;2090545;28;20029;-63
2021/09/24 03:38:20;;;;;;;88.47;38.97;;;;;;;14.54;97.11;101479.97;2090599;28;20314;-65
2021/09/24 03:39:21;;;;;;;86.10;41.97;;;;;;;14.52;97.25;101485.31;2090586;28;20111;-65
2021/09/24 03:40:21;;;;;;;87.40;42.83;;;;;;;14.52;96.95;101481.81;2089949;28;20036;-65
2021/09/24 03:41:21;;;;;;;95.10;45.27;;;;;;;14.51;97.08;101480.97;2089975;28;20033;-65
2021/09/24 03:42:22;;;;;;;98.43;45.28;;;;;;;14.51;97.27;101482.75;2090607;28;20062;-65
2021/09/24 03:43:22;;;;;;;94.13;43.60;;;;;;;14.51;97.29;101482.75;2090606;28;20036;-64
2021/09/24 03:44:23;;;;;;;80.23;40.13;;;;;;;14.51;97.37;101488.00;2090625;28;20294;-64
2021/09/24 03:45:23;;;;;;;82.97;42.20;;;;;;;14.51;97.37;101485.38;2090426;28;20482;-65
2021/09/24 03:46:23;;;;;;;85.07;42.40;;;;;;;14.50;97.35;101486.28;2090515;28;20021;-65
2021/09/24 03:47:23;;;;;;;87.03;43.23;;;;;;;14.52;97.30;101481.81;2090614;28;20020;-65
2021/09/24 03:48:24;;;;;;;85.67;41.60;;;;;;;14.53;97.33;101483.53;2090520;28;20083;-64
2021/09/24 03:49:24;;;;;;;95.17;42.07;;;;;;;14.54;97.31;101479.97;2090498;28;20032;-65
2021/09/24 03:50:24;;;;;;;93.67;42.77;;;;;;;14.54;97.29;101479.97;2090556;28;20017;-64
2021/09/24 03:51:25;;;;;;;98.80;45.30;;;;;;;14.52;97.57;101482.69;2089826;28;20044;-65
2021/09/24 03:52:26;;;;;;;97.53;42.78;;;;;;;14.53;97.31;101484.38;2089929;28;20529;-65
2021/09/24 03:53:26;;;;;;;96.67;42.67;;;;;;;14.53;97.47;101484.38;2090535;28;20033;-64
2021/09/24 03:54:26;;;;;;;93.97;44.07;;;;;;;14.53;97.46;101483.53;2090501;28;20031;-64
2021/09/24 03:55:26;;;;;;;102.23;47.03;;;;;;;14.52;97.18;101485.31;2090525;28;20049;-65
2021/09/24 03:56:27;;;;;;;95.13;45.00;;;;;;;14.50;97.49;101483.66;2090506;28;20529;-65
2021/09/24 03:57:27;;;;;;;98.30;40.43;;;;;;;14.50;97.75;101487.16;2090404;28;20033;-65
2021/09/24 03:58:27;;;;;;;94.05;43.58;;;;;;;14.50;97.62;101483.66;2090400;28;20031;-65
2021/09/24 03:59:28;;;;;;;101.23;44.97;;;;;;;14.49;97.67;101481.97;2090338;28;20390;-63
2021/09/24 04:00:28;;;;;;;99.17;43.73;;;;;;;14.50;97.62;101483.66;2090426;28;20134;-64
2021/09/24 04:01:28;;;;;;;109.70;46.23;;;;;;;14.49;97.47;101484.59;2090520;28;20386;-64
2021/09/24 04:02:28;;;;;;;102.83;45.87;;;;;;;14.49;97.46;101479.34;2090513;28;20025;-64
2021/09/24 04:03:29;;;;;;;95.83;43.70;;;;;;;14.49;97.78;101484.59;2090400;28;20098;-63
2021/09/24 04:04:29;;;;;;;94.17;40.67;;;;;;;14.49;97.42;101484.59;2090435;28;20044;-64
2021/09/24 04:05:29;;;;;;;102.07;48.03;;;;;;;14.48;97.78;101485.53;2090277;28;20025;-65
2021/09/24 04:06:30;;;;;;;108.97;48.53;;;;;;;14.47;97.78;101486.47;2089735;28;20048;-64
2021/09/24 04:07:31;;;;;;;99.25;42.05;;;;;;;14.46;97.79;101479.50;2089764;28;20021;-64
2021/09/24 04:08:32;;;;;;;108.57;46.33;;;;;;;14.46;97.82;101487.38;2090401;28;20544;-65
2021/09/24 04:09:32;;;;;;;101.40;44.35;;;;;;;14.47;98.14;101481.22;2090318;28;20102;-64
2021/09/24 04:10:32;;;;;;;109.23;44.73;;;;;;;14.47;97.37;101489.09;2090412;28;20047;-64
2021/09/24 04:11:32;;;;;;;115.87;45.53;;;;;;;14.45;97.78;101483.91;2090252;28;20114;-64
2021/09/24 04:12:33;;;;;;;107.57;46.00;;;;;;;14.46;97.93;101487.38;2090390;28;20029;-65
2021/09/24 04:13:33;;;;;;;95.80;41.97;;;;;;;14.45;98.00;101478.66;2090355;28;20166;-64
2021/09/24 04:14:34;;;;;;;98.20;43.53;;;;;;;14.46;97.92;101480.34;2090359;28;20017;-65
2021/09/24 04:15:34;;;;;;;109.60;43.77;;;;;;;14.46;97.92;101474.25;2090366;28;20019;-63
2021/09/24 04:16:35;;;;;;;108.13;47.00;;;;;;;14.47;98.08;101483.84;2089703;28;20021;-64
2021/09/24 04:17:35;;;;;;;97.97;43.08;;;;;;;14.44;98.19;101476.09;2089680;28;20052;-64
2021/09/24 04:18:35;;;;;;;108.53;45.37;;;;;;;14.44;98.27;101476.09;2090379;28;20021;-65
2021/09/24 04:19:36;;;;;;;104.73;44.80;;;;;;;14.42;98.26;101479.66;2090310;28;20078;-63
2021/09/24 04:20:36;;;;;;;104.37;44.33;;;;;;;14.41;98.09;101480.56;2090307;28;20052;-64
2021/09/24 04:21:36;;;;;;;117.87;46.87;;;;;;;14.40;98.13;101478.00;2090333;28;20020;-64
2021/09/24 04:22:37;;;;;;;103.87;42.37;;;;;;;14.40;98.42;101484.13;2090257;28;20098;-65
2021/09/24 04:23:37;;;;;;;105.80;41.13;;;;;;;14.40;98.26;101478.00;2089327;28;20052;-64
2021/09/24 04:24:37;;;;;;;109.80;45.27;;;;;;;14.40;98.21;101485.88;2090260;28;20025;-63
2021/09/24 04:25:37;;;;;;;104.63;41.47;;;;;;;14.39;98.36;101482.44;2090160;28;20025;-65
2021/09/24 04:26:38;;;;;;;105.17;43.10;;;;;;;14.39;98.44;101484.19;2090250;28;20108;-64
2021/09/24 04:27:38;;;;;;;98.47;42.37;;;;;;;14.38;97.99;101486.00;2090226;28;20031;-65
2021/09/24 04:28:38;;;;;;;105.20;41.27;;;;;;;14.37;98.43;101484.25;2090292;28;20116;-64
2021/09/24 04:29:39;;;;;;;107.17;40.70;;;;;;;14.37;98.49;101483.44;2090226;28;20029;-63
2021/09/24 04:30:39;;;;;;;105.33;40.53;;;;;;;14.36;98.72;101487.81;2089553;28;20025;-64
2021/09/24 04:31:39;;;;;;;96.63;38.97;;;;;;;14.35;98.60;101487.91;2089637;28;20050;-64
2021/09/24 04:32:40;;;;;;;94.47;38.87;;;;;;;14.34;98.68;101489.66;2090227;28;20470;-65
2021/09/24 04:33:41;;;;;;;91.77;37.83;;;;;;;14.34;98.88;101489.66;2090286;28;20294;-65
2021/09/24 04:34:41;;;;;;;103.63;43.33;;;;;;;14.34;98.83;101489.66;2090163;28;20025;-64
2021/09/24 04:35:41;;;;;;;94.37;39.03;;;;;;;14.33;99.01;101487.97;2090126;28;20020;-64
2021/09/24 04:36:42;;;;;;;95.53;37.73;;;;;;;14.34;99.00;101494.09;2090269;28;20039;-65
2021/09/24 04:37:42;;;;;;;108.37;41.83;;;;;;;14.35;98.74;101494.00;2090218;28;20032;-64